Time;durP1;ratioP1;P1;durP2;ratioP2;P2;SDS_P1;SDS_P2;PMS_P1;PMS_P2;Temp;Humidity;BMP_temperature;BMP_pressure;BME280_temperature;BME280_humidity;BME280_pressure;Samples;Min_cycle;Max_cycle;Signal;HPM_P1;HPM_P2
2023/10/14 00:01:27;;;;;;;34.10;19.10;;;;;;;12.68;54.80;100388.44;108191;1254;61322;-66
2023/10/14 00:03:56;;;;;;;38.40;20.00;;;;;;;12.69;54.58;100385.20;108226;1252;60045;-67
2023/10/14 00:06:24;;;;;;;40.10;19.60;;;;;;;12.67;54.63;100386.72;108248;1255;73293;-67
2023/10/14 00:08:57;;;;;;;29.80;17.40;;;;;;;12.76;54.49;100392.86;108257;1256;70454;-66
2023/10/14 00:11:32;;;;;;;37.00;20.90;;;;;;;12.76;54.50;100396.92;108183;1254;72659;-67
2023/10/14 00:13:59;;;;;;;32.80;18.20;;;;;;;12.66;55.00;100394.85;108124;1257;59645;-66
2023/10/14 00:18:56;;;;;;;34.90;19.80;;;;;;;12.77;54.98;100400.54;108147;1254;73028;-66
2023/10/14 00:21:23;;;;;;;30.50;18.50;;;;;;;12.75;55.03;100404.52;108032;1259;69190;-67
2023/10/14 00:23:57;;;;;;;37.10;21.80;;;;;;;12.75;55.13;100407.48;108055;1259;71621;-66
2023/10/14 00:26:25;;;;;;;37.80;21.80;;;;;;;12.59;55.61;100407.14;108001;1253;60854;-66
2023/10/14 00:28:54;;;;;;;36.30;19.60;;;;;;;12.55;55.71;100406.75;107980;1254;59951;-67
2023/10/14 00:31:23;;;;;;;40.20;21.10;;;;;;;12.56;55.68;100401.95;107986;1254;72266;-66
2023/10/14 00:33:52;;;;;;;30.60;17.60;;;;;;;12.55;55.66;100396.37;107863;1254;68836;-66
2023/10/14 00:36:21;;;;;;;31.20;17.90;;;;;;;12.72;55.30;100394.42;108005;1258;71399;-66
2023/10/14 00:38:55;;;;;;;38.90;20.90;;;;;;;12.53;55.80;100394.52;108008;1254;60847;-67
2023/10/14 00:41:27;;;;;;;36.50;20.50;;;;;;;12.32;56.49;100397.28;108145;1260;60553;-67
2023/10/14 00:43:56;;;;;;;36.00;21.10;;;;;;;12.23;56.74;100393.94;108047;1254;71825;-66
2023/10/14 00:46:30;;;;;;;38.20;21.10;;;;;;;12.31;56.71;100385.35;108065;1254;70443;-68
2023/10/14 00:49:04;;;;;;;32.70;19.00;;;;;;;12.37;56.57;100378.41;108039;1254;72483;-67
2023/10/14 00:51:35;;;;;;;35.30;20.00;;;;;;;12.37;56.61;100377.20;107999;1257;60032;-67
2023/10/14 00:54:04;;;;;;;33.10;18.30;;;;;;;12.33;56.71;100375.05;107783;1254;59678;-68
2023/10/14 00:56:32;;;;;;;34.50;19.60;;;;;;;12.35;56.83;100372.89;108026;1254;71897;-69
2023/10/14 00:59:03;;;;;;;32.00;18.40;;;;;;;12.35;56.70;100366.53;108028;1254;68994;-66
2023/10/14 01:04:21;;;;;;;33.10;18.30;;;;;;;12.21;57.28;100367.98;108006;1257;60995;-67
2023/10/14 01:09:31;;;;;;;38.80;20.80;;;;;;;12.23;57.31;100365.63;108078;1254;71877;-67
2023/10/14 01:12:16;;;;;;;35.00;21.10;;;;;;;12.26;57.19;100358.09;108002;1254;69023;-66
2023/10/14 01:14:44;;;;;;;40.50;21.20;;;;;;;12.29;57.03;100347.08;108071;1260;72645;-67
2023/10/14 01:17:31;;;;;;;33.20;18.20;;;;;;;12.33;56.81;100338.08;108026;1255;60059;-65
2023/10/14 01:22:43;;;;;;;42.00;21.00;;;;;;;12.47;56.62;100329.61;107989;1254;73140;-67
2023/10/14 01:25:15;;;;;;;40.00;21.50;;;;;;;12.40;57.36;100323.36;107971;1254;70036;-66
2023/10/14 01:27:43;;;;;;;41.10;22.90;;;;;;;12.51;57.89;100318.84;107870;1258;72672;-66
2023/10/14 01:30:18;;;;;;;35.20;21.80;;;;;;;12.56;58.24;100319.73;108028;1254;62750;-67
2023/10/14 01:35:27;;;;;;;40.50;22.60;;;;;;;12.75;58.01;100313.80;108091;1258;73855;-66
2023/10/14 01:37:55;;;;;;;33.40;20.90;;;;;;;12.74;58.19;100308.20;107944;1254;69026;-67
2023/10/14 01:42:56;;;;;;;36.40;20.20;;;;;;;12.96;57.91;100299.83;107971;1254;60465;-67
2023/10/14 01:45:31;;;;;;;41.80;21.80;;;;;;;12.96;57.99;100297.39;108081;1254;62462;-66
2023/10/14 01:48:44;;;;;;;39.00;21.60;;;;;;;13.15;57.73;100301.13;108034;1255;73856;-67
2023/10/14 01:50:54;;;;;;;35.90;19.40;;;;;;;13.14;57.75;100302.94;107962;1254;70302;-66
2023/10/14 01:53:23;;;;;;;34.70;20.20;;;;;;;13.16;57.76;100301.05;108062;1254;72666;-64
2023/10/14 01:55:55;;;;;;;35.70;21.00;;;;;;;13.39;57.19;100299.15;108086;1254;60926;-66
2023/10/14 01:58:23;;;;;;;35.60;20.70;;;;;;;13.32;57.21;100303.02;108140;1254;60267;-65
2023/10/14 02:03:49;;;;;;;45.00;21.20;;;;;;;13.37;56.74;100305.47;107957;1254;68191;-64
2023/10/14 02:06:20;;;;;;;40.40;21.70;;;;;;;13.51;56.09;100308.34;108014;1259;75133;-65
2023/10/14 02:08:51;;;;;;;38.30;19.50;;;;;;;13.51;55.88;100313.27;107942;1254;59706;-66
2023/10/14 02:11:20;;;;;;;33.60;20.70;;;;;;;13.51;55.76;100319.79;108074;1253;58739;-68
2023/10/14 02:13:51;;;;;;;33.10;18.90;;;;;;;13.46;55.76;100328.48;108053;1252;74298;-66
2023/10/14 02:16:35;;;;;;;30.10;18.00;;;;;;;13.34;55.95;100327.45;108223;1254;68113;-68
2023/10/14 02:19:17;;;;;;;34.20;20.30;;;;;;;13.54;55.40;100319.84;108232;1254;72946;-66
2023/10/14 02:21:57;;;;;;;30.30;17.90;;;;;;;13.52;55.41;100318.50;108208;1254;61017;-66
2023/10/14 02:24:27;;;;;;;31.80;17.30;;;;;;;13.44;55.44;100321.70;108251;1253;60319;-67
2023/10/14 02:27:04;;;;;;;33.70;19.90;;;;;;;13.56;54.98;100318.30;108269;1253;73826;-66
2023/10/14 02:29:32;;;;;;;24.60;15.40;;;;;;;13.35;55.48;100323.71;108290;1254;72631;-66
2023/10/14 02:32:00;;;;;;;39.10;21.50;;;;;;;13.28;55.84;100319.07;108268;1257;72923;-67
2023/10/14 02:34:28;;;;;;;37.50;21.40;;;;;;;13.29;55.74;100314.96;108067;1253;60931;-65
2023/10/14 02:37:01;;;;;;;29.30;16.90;;;;;;;13.32;55.77;100307.45;108308;1254;60277;-66
2023/10/14 02:39:29;;;;;;;36.00;21.20;;;;;;;13.33;55.69;100313.40;108199;1254;72855;-66
2023/10/14 02:41:59;;;;;;;27.80;17.40;;;;;;;13.30;55.79;100316.67;108196;1254;71187;-66
2023/10/14 02:44:43;;;;;;;33.80;20.30;;;;;;;13.35;55.81;100316.66;108204;1252;72759;-66
2023/10/14 02:47:11;;;;;;;43.80;21.60;;;;;;;13.18;55.99;100306.06;108203;1253;60874;-66
2023/10/14 02:49:40;;;;;;;36.00;19.20;;;;;;;13.11;56.10;100300.42;108264;1253;59274;-68
2023/10/14 02:52:11;;;;;;;40.60;19.50;;;;;;;13.13;56.16;100298.23;108310;1254;73809;-66
2023/10/14 02:54:45;;;;;;;32.90;19.60;;;;;;;13.08;56.69;100291.21;108342;1254;69642;-68
2023/10/14 02:57:26;;;;;;;34.90;19.30;;;;;;;13.10;57.09;100284.06;108259;1255;72639;-66
2023/10/14 02:59:57;;;;;;;;;;;;;;;13.23;57.09;100274.33;108236;1254;60520;-66
2023/10/14 03:02:25;;;;;;;31.00;18.20;;;;;;;13.32;56.60;100273.91;108226;1254;60277;-66
2023/10/14 03:07:33;;;;;;;35.20;18.80;;;;;;;13.28;56.72;100266.89;108079;1254;70142;-66
2023/10/14 03:10:12;;;;;;;32.10;17.20;;;;;;;13.31;57.13;100258.66;108218;1254;72615;-65
2023/10/14 03:12:40;;;;;;;32.20;18.00;;;;;;;13.50;57.16;100251.61;108337;1254;60908;-65
2023/10/14 03:15:20;;;;;;;31.60;18.30;;;;;;;13.57;57.02;100250.89;107943;1254;60534;-67
2023/10/14 03:17:56;;;;;;;28.00;17.60;;;;;;;13.76;56.78;100245.20;108042;1254;76109;-67
2023/10/14 03:23:18;;;;;;;26.70;16.30;;;;;;;13.71;56.70;100236.83;108105;1254;71690;-66
2023/10/14 03:25:47;;;;;;;26.60;15.50;;;;;;;13.81;56.76;100234.92;108156;1255;60627;-66
2023/10/14 03:28:24;;;;;;;27.80;15.90;;;;;;;13.94;56.43;100230.23;108071;1253;60210;-68
2023/10/14 03:30:58;;;;;;;25.80;15.00;;;;;;;14.09;56.22;100230.91;108036;1254;73844;-67
2023/10/14 03:33:29;;;;;;;27.40;15.40;;;;;;;14.19;55.91;100230.58;107995;1254;70293;-67
2023/10/14 03:36:05;;;;;;;22.90;15.20;;;;;;;14.24;55.71;100230.13;108070;1253;72672;-66
2023/10/14 03:41:04;;;;;;;23.30;13.90;;;;;;;14.30;55.72;100227.53;108128;1253;60429;-67
2023/10/14 03:44:19;;;;;;;26.90;14.60;;;;;;;14.44;55.37;100227.54;108062;1254;73791;-67
2023/10/14 03:49:06;;;;;;;26.80;15.70;;;;;;;14.70;54.46;100226.05;108047;1254;72414;-66
2023/10/14 03:51:38;;;;;;;26.60;14.60;;;;;;;14.79;54.13;100229.29;108024;1254;60453;-66
2023/10/14 03:54:12;;;;;;;21.70;14.40;;;;;;;14.80;54.04;100229.73;108118;1253;60332;-67
2023/10/14 03:56:45;;;;;;;19.80;14.20;;;;;;;14.75;54.14;100231.95;108126;1253;72588;-67
2023/10/14 03:59:20;;;;;;;22.00;13.90;;;;;;;14.71;54.15;100233.58;108037;1254;68924;-66
2023/10/14 04:01:54;;;;;;;24.60;14.80;;;;;;;14.76;53.86;100237.23;108038;1256;71339;-66
2023/10/14 04:04:23;;;;;;;22.60;13.70;;;;;;;14.62;54.10;100234.03;107992;1257;60933;-66
2023/10/14 04:07:15;;;;;;;24.90;14.60;;;;;;;14.75;53.80;100234.06;108054;1253;60204;-66
2023/10/14 04:09:44;;;;;;;22.20;13.40;;;;;;;14.80;53.56;100232.91;108034;1254;75772;-68
2023/10/14 04:12:30;;;;;;;22.60;13.70;;;;;;;14.80;53.45;100232.95;108013;1254;69223;-68
2023/10/14 04:15:05;;;;;;;23.30;15.40;;;;;;;14.72;53.86;100230.35;108183;1253;72989;-67
2023/10/14 04:17:33;;;;;;;23.40;15.40;;;;;;;14.71;54.26;100226.36;108188;1254;60287;-67
2023/10/14 04:22:41;;;;;;;22.30;14.30;;;;;;;14.79;54.31;100221.00;108295;1254;73953;-64
2023/10/14 04:30:25;;;;;;;19.20;12.80;;;;;;;14.90;54.32;100212.80;108157;1254;63080;-67
2023/10/14 04:35:23;;;;;;;19.20;12.80;;;;;;;14.97;54.16;100213.81;108204;1254;73811;-68
2023/10/14 04:37:55;;;;;;;18.80;11.60;;;;;;;14.91;54.31;100212.05;108295;1253;70630;-69
2023/10/14 04:45:45;;;;;;;20.40;12.50;;;;;;;15.16;53.76;100205.02;108214;1253;61373;-66
2023/10/14 04:48:16;;;;;;;21.40;12.50;;;;;;;15.20;53.63;100203.74;108364;1252;74111;-68
2023/10/14 04:50:56;;;;;;;;;;;;;;;15.38;53.21;100199.58;108232;1254;70232;-67
2023/10/14 04:53:27;;;;;;;18.50;11.20;;;;;;;15.55;52.78;100196.48;108194;1253;72731;-66
2023/10/14 04:55:55;;;;;;;18.00;11.70;;;;;;;15.70;52.49;100198.33;108257;1253;60326;-67
2023/10/14 04:58:25;;;;;;;17.90;11.30;;;;;;;15.86;52.09;100195.45;108149;1253;60581;-67
2023/10/14 05:01:00;;;;;;;22.10;11.70;;;;;;;15.84;52.08;100196.29;108243;1253;72115;-68
2023/10/14 05:03:31;;;;;;;18.20;11.30;;;;;;;16.03;51.57;100198.02;108272;1254;68262;-69
2023/10/14 05:08:44;;;;;;;21.00;11.80;;;;;;;16.09;51.58;100197.83;108138;1254;60309;-66
2023/10/14 05:11:13;;;;;;;21.10;11.30;;;;;;;16.19;51.36;100189.43;108149;1253;60257;-67
2023/10/14 05:13:44;;;;;;;24.00;12.80;;;;;;;16.33;51.12;100183.45;108299;1254;72778;-66
2023/10/14 05:16:15;;;;;;;22.10;12.50;;;;;;;16.44;50.85;100186.73;108214;1254;69919;-67
2023/10/14 05:18:58;;;;;;;22.80;13.60;;;;;;;16.47;50.88;100187.23;108291;1253;73036;-68
2023/10/14 05:21:36;;;;;;;20.50;12.10;;;;;;;17.02;50.36;100185.84;108244;1253;60427;-70
2023/10/14 05:24:06;;;;;;;16.60;10.90;;;;;;;17.85;49.14;100182.25;108196;1253;60438;-67
2023/10/14 05:26:44;;;;;;;16.30;11.20;;;;;;;18.32;47.50;100182.15;108288;1252;73782;-69
2023/10/14 05:29:19;;;;;;;13.90;9.40;;;;;;;18.74;46.40;100182.48;108105;1254;69056;-69
2023/10/14 05:31:47;;;;;;;19.50;10.40;;;;;;;19.32;45.07;100176.57;108159;1256;70080;-69
2023/10/14 05:34:29;;;;;;;14.50;8.90;;;;;;;19.95;44.00;100179.23;108256;1254;62730;-67
2023/10/14 05:36:56;;;;;;;18.30;9.70;;;;;;;20.45;43.17;100177.91;108224;1253;60325;-69
2023/10/14 05:39:27;;;;;;;17.80;10.90;;;;;;;20.96;42.16;100175.73;108200;1255;74780;-67
2023/10/14 05:41:58;;;;;;;23.10;13.40;;;;;;;21.42;41.32;100180.23;108168;1253;68634;-66
2023/10/14 05:44:29;;;;;;;15.10;10.30;;;;;;;22.04;40.68;100174.80;108167;1254;71685;-69
2023/10/14 05:46:57;;;;;;;15.40;10.50;;;;;;;22.64;39.50;100165.58;108182;1254;59611;-68
2023/10/14 05:49:24;;;;;;;11.60;7.80;;;;;;;23.01;38.62;100151.79;108193;1254;62284;-69
2023/10/14 05:51:53;;;;;;;15.00;8.40;;;;;;;23.25;38.05;100150.31;108194;1253;73889;-68
2023/10/14 05:54:23;;;;;;;13.50;8.50;;;;;;;23.61;37.68;100156.77;108212;1254;70288;-69
2023/10/14 05:56:54;;;;;;;12.00;8.80;;;;;;;23.68;37.44;100156.30;108223;1253;71935;-67
2023/10/14 05:59:21;;;;;;;11.80;8.60;;;;;;;23.89;37.34;100147.21;108316;1253;60329;-67
2023/10/14 06:01:49;;;;;;;11.00;8.00;;;;;;;24.21;37.23;100149.86;108232;1256;60415;-68
2023/10/14 06:04:17;;;;;;;12.80;8.30;;;;;;;24.50;36.98;100152.02;108213;1253;72609;-68
2023/10/14 06:06:44;;;;;;;13.10;8.00;;;;;;;24.82;36.57;100154.14;108211;1254;69171;-68
2023/10/14 06:09:13;;;;;;;13.30;7.40;;;;;;;25.18;36.23;100161.77;108179;1253;71421;-68
2023/10/14 06:11:41;;;;;;;9.30;6.70;;;;;;;25.22;36.27;100165.52;108195;1253;60290;-66
2023/10/14 06:14:10;;;;;;;18.30;7.70;;;;;;;25.56;36.03;100163.27;108233;1253;60294;-68
2023/10/14 06:16:38;;;;;;;11.10;7.30;;;;;;;25.89;35.97;100160.50;108192;1254;72630;-69
2023/10/14 06:19:05;;;;;;;17.50;9.60;;;;;;;26.08;35.48;100154.80;108338;1253;70150;-67
2023/10/14 06:21:33;;;;;;;16.80;8.90;;;;;;;26.35;35.22;100152.59;108232;1254;72744;-67
2023/10/14 06:24:01;;;;;;;30.60;14.50;;;;;;;26.53;35.00;100155.95;108207;1256;60360;-69
2023/10/14 06:26:28;;;;;;;37.20;16.90;;;;;;;26.42;35.38;100156.37;108192;1253;60319;-67
2023/10/14 06:28:58;;;;;;;23.00;11.40;;;;;;;26.53;35.66;100157.19;108246;1254;73895;-68
2023/10/14 06:31:26;;;;;;;15.80;9.60;;;;;;;26.45;35.46;100150.33;108349;1254;70986;-69
2023/10/14 06:33:58;;;;;;;15.00;7.50;;;;;;;26.49;35.76;100145.41;108269;1254;72913;-67
2023/10/14 06:36:25;;;;;;;12.50;7.80;;;;;;;26.44;35.76;100143.98;108228;1253;60015;-69
2023/10/14 06:38:59;;;;;;;12.20;8.00;;;;;;;26.41;35.87;100142.25;108215;1252;60446;-67
2023/10/14 06:41:28;;;;;;;18.80;7.90;;;;;;;26.55;35.88;100143.54;108210;1254;72792;-69
2023/10/14 06:43:55;;;;;;;15.90;8.30;;;;;;;26.88;35.58;100131.77;108222;1252;71059;-67
2023/10/14 06:46:25;;;;;;;23.80;8.70;;;;;;;26.98;35.13;100133.97;108154;1252;74783;-68
2023/10/14 06:48:55;;;;;;;18.10;8.10;;;;;;;26.55;35.78;100130.98;108207;1253;60453;-69
2023/10/14 06:51:23;;;;;;;18.70;7.30;;;;;;;26.63;35.59;100135.86;108253;1253;60293;-69
2023/10/14 06:53:51;;;;;;;16.50;7.90;;;;;;;26.37;36.14;100136.39;108273;1253;73940;-68
2023/10/14 06:56:20;;;;;;;18.70;8.70;;;;;;;26.33;36.47;100134.82;108279;1253;71554;-68
2023/10/14 06:58:51;;;;;;;25.60;9.50;;;;;;;26.33;36.34;100136.02;108250;1252;71857;-69
2023/10/14 07:01:21;;;;;;;25.40;8.90;;;;;;;26.28;36.47;100132.65;108183;1254;60362;-68
2023/10/14 07:03:51;;;;;;;16.20;8.90;;;;;;;26.09;36.68;100133.42;108268;1253;61915;-67
2023/10/14 07:06:20;;;;;;;17.90;9.90;;;;;;;26.11;36.66;100132.56;108184;1252;74390;-67
2023/10/14 07:08:49;;;;;;;20.60;9.80;;;;;;;26.18;37.06;100129.11;108226;1253;70462;-67
2023/10/14 07:11:16;;;;;;;22.60;10.10;;;;;;;26.61;36.41;100131.23;108194;1254;72031;-67
2023/10/14 07:13:46;;;;;;;21.90;9.10;;;;;;;26.47;36.22;100132.74;108226;1254;60041;-69
2023/10/14 07:16:13;;;;;;;20.90;9.30;;;;;;;26.75;36.29;100134.20;108243;1253;60296;-68
2023/10/14 07:18:41;;;;;;;19.50;8.40;;;;;;;27.22;35.57;100133.27;108209;1254;72822;-68
2023/10/14 07:21:12;;;;;;;21.60;9.10;;;;;;;27.20;35.76;100129.06;108181;1253;70009;-68
2023/10/14 07:23:40;;;;;;;26.00;9.20;;;;;;;27.48;35.34;100125.95;108151;1254;71221;-69
2023/10/14 07:26:12;;;;;;;29.90;9.30;;;;;;;27.80;34.79;100129.90;108275;1254;59500;-67
2023/10/14 07:28:42;;;;;;;25.40;9.70;;;;;;;27.97;34.71;100124.80;108196;1253;60316;-68
2023/10/14 07:31:11;;;;;;;26.20;10.10;;;;;;;28.22;34.26;100123.91;108256;1253;74120;-69
2023/10/14 07:33:40;;;;;;;21.80;9.00;;;;;;;28.77;33.47;100125.96;108154;1254;69539;-68
2023/10/14 07:36:11;;;;;;;25.70;10.40;;;;;;;29.08;32.81;100124.20;108267;1254;71548;-68
2023/10/14 07:38:42;;;;;;;24.20;8.50;;;;;;;29.39;32.71;100116.80;108163;1256;60401;-69
2023/10/14 07:41:12;;;;;;;19.20;8.80;;;;;;;29.22;32.95;100117.17;108162;1252;60353;-67
2023/10/14 07:43:39;;;;;;;18.70;8.10;;;;;;;29.23;32.94;100115.14;108246;1252;73638;-68
2023/10/14 07:46:08;;;;;;;17.80;7.30;;;;;;;29.51;32.61;100110.38;108210;1253;72564;-68
2023/10/14 07:48:37;;;;;;;17.30;7.60;;;;;;;30.00;32.04;100109.52;108377;1253;73439;-67
2023/10/14 07:51:06;;;;;;;17.30;7.80;;;;;;;29.86;32.13;100106.44;108133;1252;60420;-68
2023/10/14 07:53:53;;;;;;;19.20;7.90;;;;;;;29.48;32.52;100105.69;108208;1253;60309;-69
2023/10/14 07:56:23;;;;;;;16.00;7.50;;;;;;;29.79;32.36;100107.11;108132;1253;74298;-70
2023/10/14 07:58:52;;;;;;;16.00;7.20;;;;;;;30.20;31.66;100109.77;108355;1253;70626;-69
2023/10/14 08:01:23;;;;;;;14.40;6.90;;;;;;;30.33;31.72;100103.73;108227;1253;73096;-70
2023/10/14 08:03:56;;;;;;;14.30;6.70;;;;;;;30.91;30.87;100098.64;108159;1254;60469;-69
2023/10/14 08:06:25;;;;;;;12.40;6.70;;;;;;;30.73;30.95;100097.73;108160;1253;60348;-68
2023/10/14 08:08:53;;;;;;;11.40;7.20;;;;;;;30.65;31.08;100092.80;108257;1253;73739;-68
2023/10/14 08:11:22;;;;;;;15.40;7.40;;;;;;;30.82;30.96;100088.66;108167;1253;70317;-68
2023/10/14 08:13:49;;;;;;;12.20;6.70;;;;;;;31.05;30.73;100084.46;108327;1253;72630;-68
2023/10/14 08:16:16;;;;;;;15.10;6.30;;;;;;;31.37;30.36;100079.09;108153;1253;60399;-70
2023/10/14 08:18:45;;;;;;;10.40;6.50;;;;;;;31.17;30.68;100080.95;108238;1252;60434;-68
2023/10/14 08:21:12;;;;;;;10.50;6.50;;;;;;;30.76;31.29;100080.16;108222;1253;72096;-69
2023/10/14 08:23:40;;;;;;;13.60;6.90;;;;;;;31.02;30.92;100080.95;108176;1252;68976;-70
2023/10/14 08:26:13;;;;;;;10.10;6.60;;;;;;;31.09;30.79;100077.58;108176;1253;73095;-68
2023/10/14 08:28:42;;;;;;;10.50;6.20;;;;;;;31.46;30.56;100077.11;108262;1253;60549;-69
2023/10/14 08:31:11;;;;;;;13.10;6.20;;;;;;;31.05;31.20;100074.42;108243;1256;60262;-68
2023/10/14 08:33:39;;;;;;;8.90;6.00;;;;;;;30.76;31.35;100067.69;108179;1253;73113;-69
2023/10/14 08:36:11;;;;;;;12.60;7.00;;;;;;;31.21;30.91;100058.73;108304;1253;69578;-67
2023/10/14 08:38:38;;;;;;;11.30;6.00;;;;;;;31.44;30.54;100060.12;108031;1253;72046;-68
2023/10/14 08:41:06;;;;;;;9.10;6.20;;;;;;;31.12;31.24;100055.27;108263;1253;60327;-68
2023/10/14 08:43:35;;;;;;;13.10;7.10;;;;;;;30.79;31.57;100054.79;108251;1253;59068;-69
2023/10/14 08:46:03;;;;;;;10.30;6.50;;;;;;;30.41;32.27;100055.88;108001;1253;72208;-68
2023/10/14 08:48:31;;;;;;;13.90;6.80;;;;;;;30.19;32.66;100052.67;108097;1253;70064;-68
2023/10/14 08:50:58;;;;;;;12.60;6.20;;;;;;;30.72;31.73;100048.41;108179;1257;71703;-68
2023/10/14 08:53:26;;;;;;;11.20;6.40;;;;;;;31.54;31.05;100038.39;108247;1253;60341;-68
2023/10/14 08:55:54;;;;;;;10.50;6.10;;;;;;;31.83;30.51;100036.70;108294;1253;60209;-68
2023/10/14 08:58:22;;;;;;;10.70;6.00;;;;;;;31.88;30.38;100037.66;108330;1252;73930;-69
2023/10/14 09:00:54;;;;;;;12.20;6.60;;;;;;;31.86;30.53;100036.81;108353;1254;69501;-68
2023/10/14 09:03:24;;;;;;;12.10;6.80;;;;;;;31.63;30.60;100037.41;108364;1252;72798;-70
2023/10/14 09:05:52;;;;;;;11.80;6.90;;;;;;;31.72;30.74;100030.27;108122;1254;59113;-69
2023/10/14 09:08:20;;;;;;;17.30;7.70;;;;;;;32.18;30.05;100030.17;108172;1253;60443;-68
2023/10/14 09:10:50;;;;;;;15.00;7.50;;;;;;;32.24;29.89;100029.41;108155;1253;72652;-69
2023/10/14 09:13:22;;;;;;;14.30;6.90;;;;;;;31.97;30.26;100021.77;108181;1254;69987;-69
2023/10/14 09:15:50;;;;;;;12.80;7.30;;;;;;;31.81;30.46;100018.62;108070;1253;71169;-67
2023/10/14 09:18:19;;;;;;;15.00;8.40;;;;;;;31.59;30.72;100012.84;108024;1254;60337;-68
2023/10/14 09:20:54;;;;;;;16.00;7.00;;;;;;;31.71;30.79;100007.20;108128;1259;60198;-68
2023/10/14 09:23:27;;;;;;;14.50;7.30;;;;;;;31.32;30.95;100006.12;108009;1256;72605;-69
2023/10/14 09:25:58;;;;;;;16.40;6.50;;;;;;;31.01;31.58;99999.81;108082;1253;70460;-67
2023/10/14 09:28:34;;;;;;;11.10;6.50;;;;;;;30.84;31.82;99993.06;108009;1256;72418;-70
2023/10/14 09:32:35;;;;;;;15.40;7.40;;;;;;;28.76;35.02;99995.86;104858;1289;600464;-69
2023/10/14 09:35:11;;;;;;;14.10;7.60;;;;;;;29.61;33.67;99993.95;107303;1266;59339;-66
2023/10/14 09:38:08;;;;;;;12.90;7.60;;;;;;;29.70;33.41;99984.83;107308;1266;59094;-70
2023/10/14 09:40:36;;;;;;;17.20;8.20;;;;;;;29.77;33.61;99978.98;107277;1265;72234;-67
2023/10/14 09:43:04;;;;;;;15.90;7.70;;;;;;;29.85;33.36;99976.80;107193;1266;72487;-67
2023/10/14 09:45:32;;;;;;;21.10;8.30;;;;;;;29.94;33.52;99967.73;107029;1264;215132;-68
2023/10/14 09:48:00;;;;;;;12.40;7.40;;;;;;;30.71;32.52;99961.08;107335;1268;60288;-70
2023/10/14 09:50:27;;;;;;;14.10;7.40;;;;;;;30.77;32.09;99958.98;107701;1256;60130;-69
2023/10/14 09:52:56;;;;;;;16.00;6.70;;;;;;;30.84;32.02;99954.55;107651;1257;71402;-69
2023/10/14 09:55:23;;;;;;;17.50;7.60;;;;;;;31.14;31.64;99948.20;107457;1257;71582;-69
2023/10/14 09:57:51;;;;;;;12.20;6.40;;;;;;;31.20;31.33;99950.23;107563;1256;72732;-68
2023/10/14 10:00:19;;;;;;;15.30;7.60;;;;;;;30.78;31.96;99950.25;107748;1261;60073;-69
2023/10/14 10:02:49;;;;;;;14.20;7.00;;;;;;;30.66;31.92;99941.06;107616;1263;59627;-69
2023/10/14 10:05:26;;;;;;;13.70;6.80;;;;;;;30.48;32.24;99940.14;107906;1256;73023;-70
2023/10/14 10:08:33;;;;;;;12.70;7.00;;;;;;;29.88;33.05;99939.31;107870;1256;70638;-66
2023/10/14 10:11:00;;;;;;;10.80;6.30;;;;;;;29.47;33.57;99934.72;107641;1262;72693;-70
2023/10/14 10:13:29;;;;;;;13.70;7.00;;;;;;;29.24;34.11;99932.15;107819;1256;59985;-69
2023/10/14 10:16:03;;;;;;;12.70;6.80;;;;;;;29.71;33.50;99925.27;107855;1256;59526;-70
2023/10/14 10:18:51;;;;;;;14.20;6.70;;;;;;;30.48;32.47;99921.80;107659;1257;73023;-68
2023/10/14 10:21:19;;;;;;;13.90;6.80;;;;;;;30.73;32.30;99919.41;107602;1257;69935;-68
2023/10/14 10:23:56;;;;;;;20.40;9.10;;;;;;;30.90;31.93;99912.11;107567;1260;73160;-68
2023/10/14 10:26:24;;;;;;;12.10;7.30;;;;;;;30.98;31.83;99908.52;107651;1259;60315;-68
2023/10/14 10:28:51;;;;;;;13.00;6.90;;;;;;;30.67;32.65;99902.83;107630;1259;59975;-68
2023/10/14 10:31:21;;;;;;;12.20;6.50;;;;;;;30.90;31.98;99889.44;107992;1253;72967;-68
2023/10/14 10:33:54;;;;;;;14.70;6.80;;;;;;;31.17;31.70;99892.53;108048;1257;70174;-69
2023/10/14 10:36:26;;;;;;;17.30;7.10;;;;;;;30.93;31.79;99889.63;108117;1253;72576;-69
2023/10/14 10:38:54;;;;;;;12.90;7.10;;;;;;;31.24;31.37;99892.17;107985;1256;59127;-68
2023/10/14 10:41:24;;;;;;;13.20;6.80;;;;;;;31.24;31.51;99893.77;108068;1253;60011;-68
2023/10/14 10:44:03;;;;;;;17.30;7.30;;;;;;;31.30;31.34;99893.98;108003;1253;72147;-69
2023/10/14 10:46:46;;;;;;;13.00;7.00;;;;;;;31.29;31.42;99893.16;108013;1253;70439;-71
2023/10/14 10:49:16;;;;;;;15.90;8.10;;;;;;;30.84;31.99;99886.23;108041;1257;72477;-68
2023/10/14 10:52:12;;;;;;;13.20;8.10;;;;;;;31.01;31.93;99885.89;108023;1253;60285;-69
2023/10/14 10:54:44;;;;;;;17.60;9.10;;;;;;;30.54;32.72;99876.94;108043;1253;59621;-67
2023/10/14 10:57:12;;;;;;;15.50;7.50;;;;;;;30.30;32.96;99876.12;108048;1258;73571;-67
2023/10/14 10:59:40;;;;;;;17.30;8.00;;;;;;;29.98;33.21;99874.04;107953;1253;68819;-69
2023/10/14 11:02:08;;;;;;;13.30;7.20;;;;;;;29.86;33.63;99865.42;108050;1256;72128;-68
2023/10/14 11:04:38;;;;;;;15.70;8.00;;;;;;;29.86;33.82;99860.70;108103;1253;59680;-70
2023/10/14 11:07:06;;;;;;;15.70;7.80;;;;;;;29.95;33.76;99852.95;108094;1253;59155;-68
2023/10/14 11:09:40;;;;;;;12.10;7.50;;;;;;;29.80;33.84;99854.52;108056;1253;73209;-68
2023/10/14 11:12:10;;;;;;;12.10;6.90;;;;;;;29.54;34.26;99849.36;108090;1253;70003;-68
2023/10/14 11:14:38;;;;;;;18.50;8.30;;;;;;;29.81;34.00;99847.36;108048;1253;71565;-69
2023/10/14 11:17:06;;;;;;;14.90;6.80;;;;;;;29.97;33.57;99850.89;108059;1253;59739;-69
2023/10/14 11:19:34;;;;;;;12.20;7.20;;;;;;;30.16;33.47;99846.29;108113;1253;60544;-68
2023/10/14 11:22:03;;;;;;;13.70;6.70;;;;;;;30.28;33.35;99843.19;108078;1253;73229;-69
2023/10/14 11:24:30;;;;;;;17.50;7.60;;;;;;;30.66;32.77;99833.68;108129;1253;70093;-69
2023/10/14 11:26:59;;;;;;;19.40;7.20;;;;;;;30.85;32.51;99828.91;108079;1256;72602;-69
2023/10/14 11:29:27;;;;;;;15.80;7.40;;;;;;;30.85;32.49;99829.71;108034;1253;60012;-69
2023/10/14 11:31:58;;;;;;;10.90;6.80;;;;;;;30.79;32.46;99829.14;108055;1253;60035;-69
2023/10/14 11:34:34;;;;;;;24.20;8.30;;;;;;;30.84;32.34;99820.78;108037;1253;71831;-69
2023/10/14 11:37:01;;;;;;;21.00;8.50;;;;;;;30.49;32.95;99817.03;108103;1253;69979;-69
2023/10/14 11:39:32;;;;;;;16.50;9.10;;;;;;;30.39;32.79;99813.75;108035;1253;72691;-69
2023/10/14 11:42:02;;;;;;;14.30;8.40;;;;;;;30.23;33.25;99812.85;108060;1253;60143;-69
2023/10/14 11:44:29;;;;;;;17.30;7.60;;;;;;;29.92;33.59;99809.64;108015;1253;59609;-69
2023/10/14 11:46:57;;;;;;;18.40;8.50;;;;;;;29.95;33.39;99805.13;108123;1253;71769;-68
2023/10/14 11:49:26;;;;;;;20.30;7.90;;;;;;;30.08;33.61;99807.33;107988;1256;69032;-68
2023/10/14 11:51:54;;;;;;;20.40;8.60;;;;;;;29.72;34.04;99804.52;108129;1253;72688;-67
2023/10/14 11:54:24;;;;;;;20.70;9.80;;;;;;;29.86;33.63;99800.27;107874;1253;60246;-70
2023/10/14 11:56:51;;;;;;;21.30;10.10;;;;;;;29.82;33.98;99798.00;107879;1253;60257;-68
2023/10/14 11:59:19;;;;;;;16.40;8.00;;;;;;;29.74;33.89;99790.54;108004;1253;72159;-69
2023/10/14 12:01:46;;;;;;;15.70;8.10;;;;;;;29.91;33.78;99793.10;107901;1253;70795;-66
2023/10/14 12:04:17;;;;;;;22.70;10.20;;;;;;;29.81;33.76;99790.17;108025;1256;73111;-69
2023/10/14 12:06:45;;;;;;;17.30;8.80;;;;;;;29.78;34.02;99788.63;108135;1253;60339;-70
2023/10/14 12:09:13;;;;;;;18.30;8.50;;;;;;;29.51;34.40;99785.04;107884;1254;61081;-69
2023/10/14 12:11:44;;;;;;;15.60;7.80;;;;;;;29.55;34.40;99784.69;108077;1254;73051;-68
2023/10/14 12:14:12;;;;;;;15.10;8.80;;;;;;;29.19;34.94;99783.33;107997;1256;70262;-67
2023/10/14 12:16:42;;;;;;;16.70;8.70;;;;;;;29.28;35.00;99783.23;108059;1253;72754;-69